Alsace — PB4786 — position and weather

sailwx.info

Track history (hours):
 
Tides and Currents Weather Stations Pressure Air Temp Water Temp Dewpoint Dewpoint Depression Visibility Wind Speed Wind Dir Waves Ship Positions

Alsace

Last reported at 2016-Feb-12 06:30 UTC. Time now 2016-Feb-13 06:51 UTC.
Position N 50°50' E 006°59'.

Length 178 m; draft 1.8 m.

Type: Ship. MMSI: 244660556.

Date/timePositionNaut miles runAvg speedWind from/ knotsBaromVisibWave heightAir tempDewpointWater temp
2016-Feb-12 06:30N 50°50' E 006°59'4 3.4
2016-Feb-12 05:18N 50°54' E 007°02'3 4.4
2016-Feb-12 04:30N 50°56' E 006°58'8 3.9
2016-Feb-12 02:32N 51°04' E 006°54'3 3.2
2016-Feb-12 01:33N 51°07' E 006°53'3 3.4
2016-Feb-12 00:33N 51°09' E 006°50'3 2.8
2016-Feb-11 23:33N 51°11' E 006°46'3 2.9
2016-Feb-11 22:33N 51°14' E 006°44'2 2.4
2016-Feb-11 21:31N 51°16' E 006°43'4 4.0
2016-Feb-11 20:28N 51°20' E 006°43'2 2.5
2016-Feb-11 19:33N 51°22' E 006°42'4 3.7
2016-Feb-11 18:31N 51°26' E 006°43'3 3.6
2016-Feb-11 17:33N 51°29' E 006°41'3 3.4
2016-Feb-11 16:33N 51°33' E 006°41'3 3.3
2016-Feb-11 15:31N 51°34' E 006°36'12 4.0
2016-Feb-11 12:28N 51°45' E 006°25'5 5.0
2016-Feb-11 11:33N 51°47' E 006°19'5 5.1
2016-Feb-11 10:32N 51°50' E 006°12'5 5.2
2016-Feb-11 09:31N 51°52' E 006°04'10 1.8
2016-Feb-11 04:10N 51°52' E 005°48'5 6.4
2016-Feb-11 03:22N 51°54' E 005°40'6 6.3
2016-Feb-11 02:22N 51°53' E 005°30'5 5.6
2016-Feb-11 01:33N 51°50' E 005°24'5 4.5
2016-Feb-11 00:33N 51°49' E 005°17'6 5.9
2016-Feb-10 23:33N 51°49' E 005°08'6 6.1
2016-Feb-10 22:32N 51°49' E 004°57'7 6.8
2016-Feb-10 21:33N 51°48' E 004°47'7 7.4
2016-Feb-10 20:33N 51°43' E 004°38'3 2.7
2016-Feb-10 19:33N 51°41' E 004°36'0 0.0
2016-Feb-10 18:33N 51°41' E 004°36'2 1.9
2016-Feb-10 17:33N 51°43' E 004°37'7 6.6
2016-Feb-10 16:33N 51°42' E 004°26'2 1.6
2016-Feb-10 15:33N 51°41' E 004°24'8 8.1
2016-Feb-10 14:33N 51°37' E 004°12'8 8.3
2016-Feb-10 13:32N 51°29' E 004°13'4 3.9
2016-Feb-10 12:33N 51°25' E 004°14'7 6.6
2016-Feb-10 11:34N 51°20' E 004°19'0 0.4
2016-Feb-10 10:32N 51°20' E 004°20'3 2.9
2016-Feb-10 09:33N 51°17' E 004°21'0 0.0
2016-Feb-10 08:33N 51°17' E 004°21'1 0.7
2016-Feb-10 07:33N 51°17' E 004°22'0 0.1
2016-Feb-10 06:33N 51°17' E 004°22'3 3.1
2016-Feb-10 05:33N 51°20' E 004°20'0 0.0
2016-Feb-10 04:33N 51°20' E 004°20'0 0.0
2016-Feb-10 03:33N 51°20' E 004°20'0 0.4
2016-Feb-10 02:33N 51°20' E 004°20'3 3.0
2016-Feb-10 01:34N 51°17' E 004°20'5 4.5
2016-Feb-10 00:33N 51°20' E 004°16'1 0.5
2016-Feb-09 23:32N 51°21' E 004°16'0 0.0
2016-Feb-09 22:33N 51°21' E 004°16'0 0.0
2016-Feb-09 21:33N 51°21' E 004°16'0 0.0
2016-Feb-09 20:33N 51°21' E 004°16'0 0.1
2016-Feb-09 19:33N 51°21' E 004°16'0 0.0
2016-Feb-09 18:33N 51°21' E 004°16'0 0.0
2016-Feb-09 17:32N 51°21' E 004°16'1 0.6
2016-Feb-09 16:33N 51°20' E 004°16'0 0.0
2016-Feb-09 15:33N 51°20' E 004°16'0 0.0
2016-Feb-09 14:31N 51°20' E 004°16'1 1.4
2016-Feb-09 13:27N 51°19' E 004°17'1 1.0
2016-Feb-09 12:33N 51°18' E 004°16'0 0.4
2016-Feb-09 11:33N 51°18' E 004°16'0 0.0
2016-Feb-09 10:34N 51°18' E 004°16'1 1.2
2016-Feb-09 09:33N 51°19' E 004°17'0 0.0
2016-Feb-09 08:34N 51°19' E 004°17'0 0.0
2016-Feb-09 07:33N 51°19' E 004°17'0 0.0
2016-Feb-09 06:34N 51°19' E 004°17'0 0.0
2016-Feb-09 05:34N 51°19' E 004°17'0 0.0
2016-Feb-09 04:34N 51°19' E 004°17'0 0.0
2016-Feb-09 03:33N 51°19' E 004°17'0 0.0
2016-Feb-09 02:34N 51°19' E 004°17'0 0.0
2016-Feb-09 01:33N 51°19' E 004°17'0 0.0
2016-Feb-09 00:33N 51°19' E 004°17'0 0.0
2016-Feb-08 23:33N 51°19' E 004°17'1 1.2
2016-Feb-08 22:34N 51°18' E 004°16'0 0.1
2016-Feb-08 21:32N 51°18' E 004°16'0 0.2
2016-Feb-08 20:34N 51°18' E 004°16'0 0.0
2016-Feb-08 19:33N 51°18' E 004°16'0 0.2
2016-Feb-08 18:32N 51°18' E 004°16'3 3.1
2016-Feb-08 17:33N 51°17' E 004°21'8 7.6
2016-Feb-08 16:29N 51°24' E 004°14'5 5.3
2016-Feb-08 15:32N 51°29' E 004°13'9 7.6
2016-Feb-08 14:24N 51°37' E 004°12'7 8.0
2016-Feb-08 13:33N 51°40' E 004°22'3 3.5
2016-Feb-08 12:33N 51°42' E 004°27'8 8.3
2016-Feb-08 11:33N 51°43' E 004°40'9 8.9
2016-Feb-08 10:33N 51°48' E 004°52'9 8.6
2016-Feb-08 09:31N 51°49' E 005°06'9 9.6
2016-Feb-08 08:33N 51°48' E 005°21'11 9.3
2016-Feb-08 07:20N 51°54' E 005°37'810.0
2016-Feb-08 06:30N 51°52' E 005°50'0 0.2
2016-Feb-08 05:33N 51°52' E 005°50'0 0.0
2016-Feb-08 04:33N 51°52' E 005°50'0 0.0
2016-Feb-08 03:33N 51°52' E 005°50'0 0.0
2016-Feb-08 02:33N 51°52' E 005°50'0 0.0
2016-Feb-08 01:33N 51°52' E 005°50'0 0.0
2016-Feb-08 00:32N 51°52' E 005°50'0 0.0
2016-Feb-07 23:33N 51°52' E 005°50'0 0.3
2016-Feb-07 22:32N 51°52' E 005°50'0 0.0
2016-Feb-07 21:29N 51°52' E 005°50'17 5.9
2016-Feb-07 18:32N 51°49' E 006°17'8 8.1
2016-Feb-07 17:33N 51°43' E 006°25'8 8.1
2016-Feb-07 16:32N 51°37' E 006°35'8 7.7
2016-Feb-07 15:33N 51°31' E 006°43'8 8.2
2016-Feb-07 14:31N 51°23' E 006°44'7 7.4
2016-Feb-07 13:33N 51°16' E 006°43'22 7.2
2016-Feb-07 10:29N 50°56' E 006°58'111 7.5
2016-Feb-06 19:33N 49°21' E 008°29'9 8.2
2016-Feb-06 18:30N 49°14' E 008°23'910.0
2016-Feb-06 17:33N 49°04' E 008°20'21 5.1
2016-Feb-06 13:28N 48°47' E 008°02'8 6.5
2016-Feb-06 12:18N 48°41' E 007°55'64 4.0
2016-Feb-05 20:22N 47°39' E 007°32'4 4.8
2016-Feb-05 19:33N 47°36' E 007°35'1 1.2
2016-Feb-05 18:29N 47°35' E 007°35'0 0.0
2016-Feb-05 16:33N 47°35' E 007°35'0 0.2
2016-Feb-05 15:27N 47°35' E 007°35'0 0.0
2016-Feb-05 14:30N 47°35' E 007°35'0 0.0
2016-Feb-05 13:33N 47°35' E 007°35'0 0.0
2016-Feb-05 12:31N 47°35' E 007°35'0 0.0
2016-Feb-05 11:33N 47°35' E 007°35'0 0.0
2016-Feb-05 10:33N 47°35' E 007°35'0 0.0
2016-Feb-05 09:33N 47°35' E 007°35'1 1.2
2016-Feb-05 08:33N 47°36' E 007°35'0 0.0
2016-Feb-05 07:33N 47°36' E 007°35'0 0.0
2016-Feb-05 06:33N 47°36' E 007°35'0 0.0
2016-Feb-05 05:33N 47°36' E 007°35'1 0.6
2016-Feb-05 04:32N 47°36' E 007°36'1 0.7
2016-Feb-05 03:32N 47°35' E 007°35'0 0.0
2016-Feb-05 02:33N 47°35' E 007°35'0 0.3
2016-Feb-05 01:33N 47°35' E 007°36'0 0.1
2016-Feb-05 00:33N 47°35' E 007°36'0 0.0
2016-Feb-04 23:33N 47°35' E 007°36'0 0.0
2016-Feb-04 22:33N 47°35' E 007°36'0 0.4
2016-Feb-04 21:33N 47°35' E 007°35'67 3.7
2016-Feb-04 03:33N 48°41' E 007°55'4 3.9
2016-Feb-04 02:33N 48°44' E 007°58'19 4.5
2016-Feb-03 22:19N 48°59' E 008°16'4 4.6
2016-Feb-03 21:33N 49°02' E 008°18'10 4.8
2016-Feb-03 19:26N 49°12' E 008°23'4 4.8
2016-Feb-03 18:33N 49°16' E 008°26'4 3.8
2016-Feb-03 17:32N 49°20' E 008°27'107 4.3
2016-Feb-02 16:29N 50°50' E 006°59'4 3.9
2016-Feb-02 15:25N 50°54' E 007°02'18 4.1
2016-Feb-02 11:08N 51°09' E 006°48'2 4.2
2016-Feb-02 10:34N 51°11' E 006°46'2 2.3
2016-Feb-02 09:33N 51°13' E 006°45'  
Track history (hours):
 
Tides and Currents Weather Stations Pressure Air Temp Water Temp Dewpoint Dewpoint Depression Visibility Wind Speed Wind Dir Waves Ship Positions

Alsace

Last reported at 2016-Feb-12 06:30 UTC. Time now 2016-Feb-13 06:51 UTC.
Position N 50°50' E 006°59'.

Length 178 m; draft 1.8 m.

Type: Ship. MMSI: 244660556.

Date/timePositionNaut miles runAvg speedWind from/ knotsBaromVisibWave heightAir tempDewpointWater temp
2016-Feb-12 06:30N 50°50' E 006°59'4 3.4
2016-Feb-12 05:18N 50°54' E 007°02'3 4.4
2016-Feb-12 04:30N 50°56' E 006°58'8 3.9
2016-Feb-12 02:32N 51°04' E 006°54'3 3.2
2016-Feb-12 01:33N 51°07' E 006°53'3 3.4
2016-Feb-12 00:33N 51°09' E 006°50'3 2.8
2016-Feb-11 23:33N 51°11' E 006°46'3 2.9
2016-Feb-11 22:33N 51°14' E 006°44'2 2.4
2016-Feb-11 21:31N 51°16' E 006°43'4 4.0
2016-Feb-11 20:28N 51°20' E 006°43'2 2.5
2016-Feb-11 19:33N 51°22' E 006°42'4 3.7
2016-Feb-11 18:31N 51°26' E 006°43'3 3.6
2016-Feb-11 17:33N 51°29' E 006°41'3 3.4
2016-Feb-11 16:33N 51°33' E 006°41'3 3.3
2016-Feb-11 15:31N 51°34' E 006°36'12 4.0
2016-Feb-11 12:28N 51°45' E 006°25'5 5.0
2016-Feb-11 11:33N 51°47' E 006°19'5 5.1
2016-Feb-11 10:32N 51°50' E 006°12'5 5.2
2016-Feb-11 09:31N 51°52' E 006°04'10 1.8
2016-Feb-11 04:10N 51°52' E 005°48'5 6.4
2016-Feb-11 03:22N 51°54' E 005°40'6 6.3
2016-Feb-11 02:22N 51°53' E 005°30'5 5.6
2016-Feb-11 01:33N 51°50' E 005°24'5 4.5
2016-Feb-11 00:33N 51°49' E 005°17'6 5.9
2016-Feb-10 23:33N 51°49' E 005°08'6 6.1
2016-Feb-10 22:32N 51°49' E 004°57'7 6.8
2016-Feb-10 21:33N 51°48' E 004°47'7 7.4
2016-Feb-10 20:33N 51°43' E 004°38'3 2.7
2016-Feb-10 19:33N 51°41' E 004°36'0 0.0
2016-Feb-10 18:33N 51°41' E 004°36'2 1.9
2016-Feb-10 17:33N 51°43' E 004°37'7 6.6
2016-Feb-10 16:33N 51°42' E 004°26'2 1.6
2016-Feb-10 15:33N 51°41' E 004°24'8 8.1
2016-Feb-10 14:33N 51°37' E 004°12'8 8.3
2016-Feb-10 13:32N 51°29' E 004°13'4 3.9
2016-Feb-10 12:33N 51°25' E 004°14'7 6.6
2016-Feb-10 11:34N 51°20' E 004°19'0 0.4
2016-Feb-10 10:32N 51°20' E 004°20'3 2.9
2016-Feb-10 09:33N 51°17' E 004°21'0 0.0
2016-Feb-10 08:33N 51°17' E 004°21'1 0.7
2016-Feb-10 07:33N 51°17' E 004°22'0 0.1
2016-Feb-10 06:33N 51°17' E 004°22'3 3.1
2016-Feb-10 05:33N 51°20' E 004°20'0 0.0
2016-Feb-10 04:33N 51°20' E 004°20'0 0.0
2016-Feb-10 03:33N 51°20' E 004°20'0 0.4
2016-Feb-10 02:33N 51°20' E 004°20'3 3.0
2016-Feb-10 01:34N 51°17' E 004°20'5 4.5
2016-Feb-10 00:33N 51°20' E 004°16'1 0.5
2016-Feb-09 23:32N 51°21' E 004°16'0 0.0
2016-Feb-09 22:33N 51°21' E 004°16'0 0.0
2016-Feb-09 21:33N 51°21' E 004°16'0 0.0
2016-Feb-09 20:33N 51°21' E 004°16'0 0.1
2016-Feb-09 19:33N 51°21' E 004°16'0 0.0
2016-Feb-09 18:33N 51°21' E 004°16'0 0.0
2016-Feb-09 17:32N 51°21' E 004°16'1 0.6
2016-Feb-09 16:33N 51°20' E 004°16'0 0.0
2016-Feb-09 15:33N 51°20' E 004°16'0 0.0
2016-Feb-09 14:31N 51°20' E 004°16'1 1.4
2016-Feb-09 13:27N 51°19' E 004°17'1 1.0
2016-Feb-09 12:33N 51°18' E 004°16'0 0.4
2016-Feb-09 11:33N 51°18' E 004°16'0 0.0
2016-Feb-09 10:34N 51°18' E 004°16'1 1.2
2016-Feb-09 09:33N 51°19' E 004°17'0 0.0
2016-Feb-09 08:34N 51°19' E 004°17'0 0.0
2016-Feb-09 07:33N 51°19' E 004°17'0 0.0
2016-Feb-09 06:34N 51°19' E 004°17'0 0.0
2016-Feb-09 05:34N 51°19' E 004°17'0 0.0
2016-Feb-09 04:34N 51°19' E 004°17'0 0.0
2016-Feb-09 03:33N 51°19' E 004°17'0 0.0
2016-Feb-09 02:34N 51°19' E 004°17'0 0.0
2016-Feb-09 01:33N 51°19' E 004°17'0 0.0
2016-Feb-09 00:33N 51°19' E 004°17'0 0.0
2016-Feb-08 23:33N 51°19' E 004°17'1 1.2
2016-Feb-08 22:34N 51°18' E 004°16'0 0.1
2016-Feb-08 21:32N 51°18' E 004°16'0 0.2
2016-Feb-08 20:34N 51°18' E 004°16'0 0.0
2016-Feb-08 19:33N 51°18' E 004°16'0 0.2
2016-Feb-08 18:32N 51°18' E 004°16'3 3.1
2016-Feb-08 17:33N 51°17' E 004°21'8 7.6
2016-Feb-08 16:29N 51°24' E 004°14'5 5.3
2016-Feb-08 15:32N 51°29' E 004°13'9 7.6
2016-Feb-08 14:24N 51°37' E 004°12'7 8.0
2016-Feb-08 13:33N 51°40' E 004°22'3 3.5
2016-Feb-08 12:33N 51°42' E 004°27'8 8.3
2016-Feb-08 11:33N 51°43' E 004°40'9 8.9
2016-Feb-08 10:33N 51°48' E 004°52'9 8.6
2016-Feb-08 09:31N 51°49' E 005°06'9 9.6
2016-Feb-08 08:33N 51°48' E 005°21'11 9.3
2016-Feb-08 07:20N 51°54' E 005°37'810.0
2016-Feb-08 06:30N 51°52' E 005°50'0 0.2
2016-Feb-08 05:33N 51°52' E 005°50'0 0.0
2016-Feb-08 04:33N 51°52' E 005°50'0 0.0
2016-Feb-08 03:33N 51°52' E 005°50'0 0.0
2016-Feb-08 02:33N 51°52' E 005°50'0 0.0
2016-Feb-08 01:33N 51°52' E 005°50'0 0.0
2016-Feb-08 00:32N 51°52' E 005°50'0 0.0
2016-Feb-07 23:33N 51°52' E 005°50'0 0.3
2016-Feb-07 22:32N 51°52' E 005°50'0 0.0
2016-Feb-07 21:29N 51°52' E 005°50'17 5.9
2016-Feb-07 18:32N 51°49' E 006°17'8 8.1
2016-Feb-07 17:33N 51°43' E 006°25'8 8.1
2016-Feb-07 16:32N 51°37' E 006°35'8 7.7
2016-Feb-07 15:33N 51°31' E 006°43'8 8.2
2016-Feb-07 14:31N 51°23' E 006°44'7 7.4
2016-Feb-07 13:33N 51°16' E 006°43'22 7.2
2016-Feb-07 10:29N 50°56' E 006°58'111 7.5
2016-Feb-06 19:33N 49°21' E 008°29'9 8.2
2016-Feb-06 18:30N 49°14' E 008°23'910.0
2016-Feb-06 17:33N 49°04' E 008°20'21 5.1
2016-Feb-06 13:28N 48°47' E 008°02'8 6.5
2016-Feb-06 12:18N 48°41' E 007°55'64 4.0
2016-Feb-05 20:22N 47°39' E 007°32'4 4.8
2016-Feb-05 19:33N 47°36' E 007°35'1 1.2
2016-Feb-05 18:29N 47°35' E 007°35'0 0.0
2016-Feb-05 16:33N 47°35' E 007°35'0 0.2
2016-Feb-05 15:27N 47°35' E 007°35'0 0.0
2016-Feb-05 14:30N 47°35' E 007°35'0 0.0
2016-Feb-05 13:33N 47°35' E 007°35'0 0.0
2016-Feb-05 12:31N 47°35' E 007°35'0 0.0
2016-Feb-05 11:33N 47°35' E 007°35'0 0.0
2016-Feb-05 10:33N 47°35' E 007°35'0 0.0
2016-Feb-05 09:33N 47°35' E 007°35'1 1.2
2016-Feb-05 08:33N 47°36' E 007°35'0 0.0
2016-Feb-05 07:33N 47°36' E 007°35'0 0.0
2016-Feb-05 06:33N 47°36' E 007°35'0 0.0
2016-Feb-05 05:33N 47°36' E 007°35'1 0.6
2016-Feb-05 04:32N 47°36' E 007°36'1 0.7
2016-Feb-05 03:32N 47°35' E 007°35'0 0.0
2016-Feb-05 02:33N 47°35' E 007°35'0 0.3
2016-Feb-05 01:33N 47°35' E 007°36'0 0.1
2016-Feb-05 00:33N 47°35' E 007°36'0 0.0
2016-Feb-04 23:33N 47°35' E 007°36'0 0.0
2016-Feb-04 22:33N 47°35' E 007°36'0 0.4
2016-Feb-04 21:33N 47°35' E 007°35'67 3.7
2016-Feb-04 03:33N 48°41' E 007°55'4 3.9
2016-Feb-04 02:33N 48°44' E 007°58'19 4.5
2016-Feb-03 22:19N 48°59' E 008°16'4 4.6
2016-Feb-03 21:33N 49°02' E 008°18'10 4.8
2016-Feb-03 19:26N 49°12' E 008°23'4 4.8
2016-Feb-03 18:33N 49°16' E 008°26'4 3.8
2016-Feb-03 17:32N 49°20' E 008°27'107 4.3
2016-Feb-02 16:29N 50°50' E 006°59'4 3.9
2016-Feb-02 15:25N 50°54' E 007°02'18 4.1
2016-Feb-02 11:08N 51°09' E 006°48'2 4.2
2016-Feb-02 10:34N 51°11' E 006°46'2 2.3
2016-Feb-02 09:33N 51°13' E 006°45'  

Dump ship's entire track history